Time;durP1;ratioP1;P1;durP2;ratioP2;P2;SDS_P1;SDS_P2;PMS_P1;PMS_P2;Temp;Humidity;BMP_temperature;BMP_pressure;BME280_temperature;BME280_humidity;BME280_pressure;Samples;Min_cycle;Max_cycle;Signal;HPM_P1;HPM_P2
2023/11/16 00:00:05;;;;;;;4.95;1.45;;;;;10.80;98774.00;;;;4918342;29;20062;-63
2023/11/16 00:02:38;;;;;;;5.93;1.60;;;;;10.80;98774.00;;;;4934887;29;20067;-62
2023/11/16 00:05:05;;;;;;;6.82;1.73;;;;;10.70;98773.00;;;;4934095;29;20107;-64
2023/11/16 00:07:33;;;;;;;6.72;1.67;;;;;10.60;98779.00;;;;4934541;29;20062;-63
2023/11/16 00:09:59;;;;;;;6.57;1.67;;;;;10.70;98777.00;;;;4934832;29;20050;-62
2023/11/16 00:12:26;;;;;;;5.13;1.70;;;;;10.70;98776.00;;;;4934936;29;20047;-62
2023/11/16 00:14:53;;;;;;;12.32;2.53;;;;;10.70;98771.00;;;;4934050;29;20044;-63
2023/11/16 00:17:19;;;;;;;4.50;1.65;;;;;10.70;98770.00;;;;4933747;29;20054;-63
2023/11/16 00:19:46;;;;;;;3.17;1.77;;;;;10.70;98765.00;;;;4917720;29;20135;-63
2023/11/16 00:22:12;;;;;;;5.72;2.97;;;;;10.70;98771.00;;;;4934619;29;20494;-65
2023/11/16 00:24:39;;;;;;;3.47;2.03;;;;;10.70;98766.00;;;;4933991;29;20050;-64
2023/11/16 00:27:05;;;;;;;5.45;1.75;;;;;10.70;98765.00;;;;4934653;29;20048;-64
2023/11/16 00:29:32;;;;;;;6.43;1.80;;;;;10.60;98757.00;;;;4933395;29;20050;-64
2023/11/16 00:31:59;;;;;;;5.65;2.28;;;;;10.60;98749.00;;;;4933604;29;20068;-65
2023/11/16 00:34:25;;;;;;;7.80;2.35;;;;;10.50;98736.00;;;;4934077;29;20051;-64
2023/11/16 00:36:52;;;;;;;5.90;2.10;;;;;10.50;98739.00;;;;4935686;29;20083;-64
2023/11/16 00:39:19;;;;;;;5.78;2.22;;;;;10.50;98741.00;;;;4921535;29;20126;-65
2023/11/16 00:41:46;;;;;;;10.57;3.05;;;;;10.50;98728.00;;;;4938266;29;20405;-65
2023/11/16 00:44:14;;;;;;;5.32;1.92;;;;;10.50;98719.00;;;;4936509;29;20552;-65
2023/11/16 00:46:43;;;;;;;3.35;1.75;;;;;10.40;98729.00;;;;4936986;29;20052;-65
2023/11/16 00:49:09;;;;;;;4.63;1.80;;;;;10.30;98721.00;;;;4937072;29;20044;-63
2023/11/16 00:51:37;;;;;;;4.97;2.45;;;;;10.20;98724.00;;;;4938302;29;20054;-64
2023/11/16 00:54:04;;;;;;;5.05;1.85;;;;;10.20;98731.00;;;;4936188;29;20059;-64
2023/11/16 00:56:31;;;;;;;3.85;1.50;;;;;10.20;98725.00;;;;4937976;29;20047;-64
2023/11/16 00:58:58;;;;;;;4.90;2.15;;;;;10.10;98716.00;;;;4937977;29;20122;-64
2023/11/16 01:01:26;;;;;;;3.78;1.67;;;;;10.10;98711.00;;;;4936468;29;20484;-65
2023/11/16 01:03:53;;;;;;;6.32;1.88;;;;;10.10;98719.00;;;;4937244;29;20535;-64
2023/11/16 01:06:21;;;;;;;4.47;1.92;;;;;10.00;98721.00;;;;4937605;29;20134;-64
2023/11/16 01:08:48;;;;;;;4.25;2.00;;;;;10.00;98717.00;;;;4920855;29;20501;-64
2023/11/16 01:11:16;;;;;;;6.80;2.05;;;;;10.00;98717.00;;;;4937712;29;20172;-63
2023/11/16 01:13:44;;;;;;;5.75;2.22;;;;;10.00;98721.00;;;;4935730;29;20805;-64
2023/11/16 01:16:14;;;;;;;5.43;1.77;;;;;10.00;98724.00;;;;4936773;29;20048;-64
2023/11/16 01:18:51;;;;;;;4.35;1.73;;;;;10.00;98725.00;;;;4936783;29;20469;-64
2023/11/16 01:21:19;;;;;;;8.00;2.33;;;;;10.00;98729.00;;;;4936382;29;20408;-65
2023/11/16 01:23:47;;;;;;;7.03;2.60;;;;;10.10;98729.00;;;;4919869;29;20429;-64
2023/11/16 01:26:17;;;;;;;7.53;1.83;;;;;10.10;98730.00;;;;4937466;29;20131;-64
2023/11/16 01:28:46;;;;;;;6.07;1.60;;;;;10.20;98731.00;;;;4936057;29;20755;-64
2023/11/16 01:31:14;;;;;;;4.97;1.60;;;;;10.10;98730.00;;;;4936180;29;20054;-64
2023/11/16 01:33:42;;;;;;;6.30;1.88;;;;;10.10;98738.00;;;;4935646;29;20055;-64
2023/11/16 01:36:10;;;;;;;7.13;1.95;;;;;10.10;98728.00;;;;4936132;29;20043;-63
2023/11/16 01:38:37;;;;;;;3.22;1.65;;;;;10.10;98730.00;;;;4935855;29;20051;-64
2023/11/16 01:41:08;;;;;;;5.82;1.73;;;;;10.10;98735.00;;;;4935816;29;20496;-64
2023/11/16 01:43:38;;;;;;;5.97;1.70;;;;;10.10;98735.00;;;;4919675;29;20516;-63
2023/11/16 01:46:06;;;;;;;6.57;1.85;;;;;10.20;98724.00;;;;4936316;29;20052;-63
2023/11/16 01:48:34;;;;;;;4.38;1.75;;;;;10.10;98724.00;;;;4935948;29;20532;-64
2023/11/16 01:51:05;;;;;;;5.45;1.58;;;;;10.20;98727.00;;;;4937124;29;20122;-65
2023/11/16 01:53:39;;;;;;;6.68;1.90;;;;;10.10;98727.00;;;;4935012;29;20147;-64
2023/11/16 01:56:08;;;;;;;4.28;1.45;;;;;10.10;98727.00;;;;4935791;29;20058;-63
2023/11/16 01:58:35;;;;;;;7.85;1.60;;;;;10.10;98728.00;;;;4935759;29;20058;-65
2023/11/16 02:01:03;;;;;;;6.13;2.17;;;;;10.20;98718.00;;;;4935510;29;20058;-64
2023/11/16 02:03:31;;;;;;;7.88;1.63;;;;;10.20;98724.00;;;;4936081;29;20052;-65
2023/11/16 02:05:59;;;;;;;10.15;2.38;;;;;10.20;98721.00;;;;4919569;29;20044;-65
2023/11/16 02:08:26;;;;;;;7.47;1.73;;;;;10.20;98713.00;;;;4920024;29;20390;-64
2023/11/16 02:10:53;;;;;;;7.63;2.15;;;;;10.20;98705.00;;;;4935454;29;20417;-64
2023/11/16 02:13:23;;;;;;;4.65;1.42;;;;;10.10;98708.00;;;;4935211;29;20107;-62
2023/11/16 02:15:55;;;;;;;4.85;1.80;;;;;10.10;98707.00;;;;4935398;29;20055;-64
2023/11/16 02:18:23;;;;;;;8.68;2.10;;;;;10.00;98717.00;;;;4935246;29;20066;-65
2023/11/16 02:20:51;;;;;;;6.93;1.90;;;;;10.00;98715.00;;;;4935138;29;20501;-65
2023/11/16 02:23:18;;;;;;;6.88;1.70;;;;;10.00;98718.00;;;;4935132;29;20050;-63
2023/11/16 02:25:52;;;;;;;7.93;1.92;;;;;10.00;98719.00;;;;4918890;29;20052;-65
2023/11/16 02:28:20;;;;;;;6.82;2.08;;;;;10.00;98716.00;;;;4936296;29;20172;-63
2023/11/16 02:30:47;;;;;;;7.43;1.88;;;;;10.00;98715.00;;;;4936296;29;20047;-63
2023/11/16 02:33:14;;;;;;;6.10;2.03;;;;;10.00;98712.00;;;;4935004;29;20040;-65
2023/11/16 02:35:41;;;;;;;11.80;2.10;;;;;10.00;98707.00;;;;4935399;29;20143;-64
2023/11/16 02:38:09;;;;;;;12.13;2.28;;;;;10.10;98705.00;;;;4936113;29;20052;-65
2023/11/16 02:40:36;;;;;;;2.85;1.75;;;;;10.10;98696.00;;;;4934867;29;20151;-64
2023/11/16 02:43:03;;;;;;;7.03;2.13;;;;;10.10;98696.00;;;;4918954;29;20122;-63
2023/11/16 02:45:32;;;;;;;5.65;1.92;;;;;10.10;98681.00;;;;4935498;29;20131;-65
2023/11/16 02:48:00;;;;;;;3.63;1.52;;;;;10.20;98683.00;;;;4936175;29;20047;-64
2023/11/16 02:50:27;;;;;;;5.28;1.95;;;;;10.20;98673.00;;;;4934667;29;20043;-65
2023/11/16 02:52:53;;;;;;;6.30;1.88;;;;;10.20;98678.00;;;;4934690;29;20138;-64
2023/11/16 02:55:24;;;;;;;9.48;2.53;;;;;10.20;98690.00;;;;4933984;29;20040;-64
2023/11/16 02:57:55;;;;;;;5.38;2.03;;;;;10.30;98688.00;;;;4934612;29;20052;-65
2023/11/16 03:00:22;;;;;;;14.00;2.45;;;;;10.30;98690.00;;;;4918785;29;20055;-64
2023/11/16 03:02:49;;;;;;;7.90;1.77;;;;;10.30;98682.00;;;;4918908;29;20556;-65
2023/11/16 03:05:18;;;;;;;11.15;2.15;;;;;10.30;98681.00;;;;4933592;29;20098;-64
2023/11/16 03:07:46;;;;;;;8.38;2.20;;;;;10.30;98679.00;;;;4918495;29;20056;-64
2023/11/16 03:10:13;;;;;;;8.38;2.05;;;;;10.30;98680.00;;;;4934489;29;20099;-65
2023/11/16 03:12:40;;;;;;;5.82;2.33;;;;;10.40;98680.00;;;;4935907;29;20039;-64
2023/11/16 03:15:08;;;;;;;12.23;2.88;;;;;10.40;98680.00;;;;4935199;29;20058;-64
2023/11/16 03:17:38;;;;;;;5.18;1.75;;;;;10.50;98672.00;;;;4935943;29;20044;-64
2023/11/16 03:20:08;;;;;;;8.85;2.22;;;;;10.50;98656.00;;;;4934806;29;20111;-64
2023/11/16 03:22:35;;;;;;;9.23;2.17;;;;;10.50;98649.00;;;;4919187;29;20131;-64
2023/11/16 03:25:04;;;;;;;9.10;3.35;;;;;10.40;98658.00;;;;4933497;29;20524;-63
2023/11/16 03:27:32;;;;;;;6.78;2.47;;;;;10.50;98668.00;;;;4934035;29;20449;-62
2023/11/16 03:29:59;;;;;;;8.82;2.30;;;;;10.50;98665.00;;;;4935171;29;20059;-62
2023/11/16 03:32:26;;;;;;;5.95;1.98;;;;;10.50;98657.00;;;;4935327;29;20134;-62
2023/11/16 03:34:53;;;;;;;9.98;3.00;;;;;10.50;98656.00;;;;4934576;29;20099;-63
2023/11/16 03:37:19;;;;;;;11.35;2.60;;;;;10.50;98648.00;;;;4935138;29;20134;-62
2023/11/16 03:39:46;;;;;;;7.15;2.50;;;;;10.50;98649.00;;;;4933982;29;20143;-61
2023/11/16 03:42:14;;;;;;;12.90;2.78;;;;;10.40;98647.00;;;;4935035;29;20039;-63
2023/11/16 03:44:40;;;;;;;5.90;2.20;;;;;10.40;98646.00;;;;4933084;29;20054;-62
2023/11/16 03:47:07;;;;;;;6.03;2.20;;;;;10.40;98648.00;;;;4933709;29;20134;-62
2023/11/16 03:49:34;;;;;;;7.38;2.58;;;;;10.40;98643.00;;;;4934964;29;20130;-63
2023/11/16 03:52:00;;;;;;;11.07;2.75;;;;;10.30;98646.00;;;;4933666;29;20071;-62
2023/11/16 03:54:27;;;;;;;10.68;2.90;;;;;10.40;98644.00;;;;4934197;29;20458;-62
2023/11/16 03:56:54;;;;;;;12.00;3.08;;;;;10.40;98660.00;;;;4934089;29;20394;-62
2023/11/16 03:59:24;;;;;;;8.25;2.60;;;;;10.40;98662.00;;;;4934847;29;20050;-62
2023/11/16 04:01:51;;;;;;;6.28;2.45;;;;;10.40;98650.00;;;;4934966;29;20047;-62
2023/11/16 04:04:19;;;;;;;5.55;2.10;;;;;10.40;98655.00;;;;4933014;29;20048;-62
2023/11/16 04:06:49;;;;;;;10.52;2.33;;;;;10.50;98635.00;;;;4934679;29;20579;-62
2023/11/16 04:09:17;;;;;;;9.80;2.17;;;;;10.50;98642.00;;;;4917866;29;20047;-63
2023/11/16 04:11:47;;;;;;;8.05;3.08;;;;;10.50;98635.00;;;;4937497;29;20047;-64
2023/11/16 04:14:17;;;;;;;5.80;2.55;;;;;10.40;98628.00;;;;4938074;29;20090;-64
2023/11/16 04:16:52;;;;;;;11.25;3.10;;;;;10.50;98641.00;;;;4939263;29;20126;-61
2023/11/16 04:19:20;;;;;;;4.82;1.90;;;;;10.50;98637.00;;;;4937533;29;20067;-62
2023/11/16 04:21:47;;;;;;;8.02;2.58;;;;;10.50;98632.00;;;;4938744;29;20044;-61
2023/11/16 04:24:14;;;;;;;10.57;3.30;;;;;10.60;98626.00;;;;4937001;29;20054;-63
2023/11/16 04:26:41;;;;;;;6.75;2.50;;;;;10.50;98633.00;;;;4938543;29;20079;-63
2023/11/16 04:29:07;;;;;;;7.63;2.40;;;;;10.50;98643.00;;;;4937164;29;20047;-63
2023/11/16 04:31:35;;;;;;;6.05;2.15;;;;;10.50;98635.00;;;;4938413;29;20099;-63
2023/11/16 04:34:02;;;;;;;12.93;3.35;;;;;10.50;98632.00;;;;4936593;29;20058;-63
2023/11/16 04:36:29;;;;;;;10.32;3.05;;;;;10.50;98628.00;;;;4937039;29;20055;-63
2023/11/16 04:38:59;;;;;;;10.48;3.17;;;;;10.50;98623.00;;;;4938347;29;20540;-63
2023/11/16 04:41:28;;;;;;;5.97;2.95;;;;;10.50;98626.00;;;;4938288;29;20091;-63
2023/11/16 04:43:57;;;;;;;11.15;2.60;;;;;10.50;98634.00;;;;4937388;29;20497;-62
2023/11/16 04:46:27;;;;;;;6.90;2.50;;;;;10.40;98635.00;;;;4938176;29;20480;-63
2023/11/16 04:48:54;;;;;;;7.90;2.80;;;;;10.40;98628.00;;;;4938299;29;20416;-63
2023/11/16 04:51:23;;;;;;;8.85;2.80;;;;;10.50;98622.00;;;;4938299;29;20447;-63
2023/11/16 04:53:50;;;;;;;11.13;3.28;;;;;10.50;98622.00;;;;4937432;29;20126;-63
2023/11/16 04:56:17;;;;;;;9.25;2.92;;;;;10.60;98614.00;;;;4936756;29;20050;-63
2023/11/16 04:58:45;;;;;;;9.90;3.50;;;;;10.50;98606.00;;;;4936619;29;20047;-63
2023/11/16 05:01:14;;;;;;;9.48;3.30;;;;;10.50;98597.00;;;;4937889;29;20051;-63
2023/11/16 05:03:44;;;;;;;31.42;10.82;;;;;10.50;98603.00;;;;4936525;29;20051;-63
2023/11/16 05:06:13;;;;;;;10.20;3.28;;;;;10.50;98619.00;;;;4938334;29;20547;-62
2023/11/16 05:08:43;;;;;;;13.10;3.72;;;;;10.40;98613.00;;;;4938518;29;20135;-63
2023/11/16 05:11:10;;;;;;;6.05;2.72;;;;;10.40;98606.00;;;;4937641;29;20052;-62
2023/11/16 05:13:37;;;;;;;8.70;2.85;;;;;10.50;98601.00;;;;4920103;29;20048;-63
2023/11/16 05:16:04;;;;;;;7.15;2.80;;;;;10.50;98598.00;;;;4937675;29;20053;-63
2023/11/16 05:18:31;;;;;;;10.25;3.20;;;;;10.50;98591.00;;;;4936303;29;20051;-63
2023/11/16 05:21:01;;;;;;;8.65;3.30;;;;;10.50;98592.00;;;;4936281;29;20559;-63
2023/11/16 05:23:28;;;;;;;6.57;2.65;;;;;10.50;98594.00;;;;4936433;29;20039;-64
2023/11/16 05:25:56;;;;;;;10.82;3.22;;;;;10.60;98590.00;;;;4936184;29;20076;-63
2023/11/16 05:28:23;;;;;;;9.27;3.30;;;;;10.70;98585.00;;;;4937264;29;20078;-63
2023/11/16 05:30:50;;;;;;;11.25;3.00;;;;;10.70;98589.00;;;;4937282;29;20127;-64
2023/11/16 05:33:19;;;;;;;9.55;3.25;;;;;10.60;98582.00;;;;4936279;29;20046;-63
2023/11/16 05:35:48;;;;;;;6.75;2.60;;;;;10.60;98580.00;;;;4936915;29;20056;-63
2023/11/16 05:38:17;;;;;;;7.88;3.03;;;;;10.60;98581.00;;;;4936136;29;20052;-63
2023/11/16 05:40:44;;;;;;;10.52;3.60;;;;;10.50;98567.00;;;;4937530;29;20043;-63
2023/11/16 05:43:11;;;;;;;10.20;3.60;;;;;10.50;98572.00;;;;4937627;29;20136;-65
2023/11/16 05:45:41;;;;;;;11.50;3.47;;;;;10.40;98572.00;;;;4936738;29;20111;-63
2023/11/16 05:48:08;;;;;;;11.80;4.25;;;;;10.50;98569.00;;;;4937447;29;20131;-62
2023/11/16 05:50:36;;;;;;;8.85;3.25;;;;;10.50;98564.00;;;;4936020;29;20044;-63
2023/11/16 05:53:03;;;;;;;13.70;4.00;;;;;10.50;98565.00;;;;4937221;29;20143;-64
2023/11/16 05:55:34;;;;;;;22.42;5.43;;;;;10.50;98559.00;;;;4937065;29;20048;-63
2023/11/16 05:58:01;;;;;;;16.15;6.50;;;;;10.50;98543.00;;;;4937470;29;20058;-64
2023/11/16 06:00:28;;;;;;;12.45;4.60;;;;;10.50;98543.00;;;;4939126;29;20047;-63
2023/11/16 06:02:55;;;;;;;10.77;6.25;;;;;10.50;98530.00;;;;4938467;29;20094;-64
2023/11/16 06:05:22;;;;;;;12.70;4.45;;;;;10.40;98540.00;;;;4920808;29;20062;-64
2023/11/16 06:07:49;;;;;;;12.00;4.60;;;;;10.40;98540.00;;;;4937176;29;20433;-63
2023/11/16 06:10:16;;;;;;;13.88;4.60;;;;;10.40;98541.00;;;;4936751;29;20075;-64
2023/11/16 06:12:46;;;;;;;14.05;5.18;;;;;10.40;98528.00;;;;4936124;29;20058;-64
2023/11/16 06:15:14;;;;;;;13.77;5.80;;;;;10.40;98526.00;;;;4936519;29;20054;-63
2023/11/16 06:17:42;;;;;;;8.38;5.00;;;;;10.40;98529.00;;;;4936149;29;20139;-63
2023/11/16 06:20:12;;;;;;;10.75;4.55;;;;;10.30;98531.00;;;;4920571;29;20051;-63
2023/11/16 06:22:40;;;;;;;12.75;5.28;;;;;10.30;98538.00;;;;4938416;29;20077;-64
2023/11/16 06:25:10;;;;;;;12.15;4.45;;;;;10.30;98548.00;;;;4938113;29;20119;-62
2023/11/16 06:27:38;;;;;;;9.50;4.20;;;;;10.40;98544.00;;;;4937471;29;20047;-64
2023/11/16 06:30:06;;;;;;;11.80;4.70;;;;;10.40;98545.00;;;;4937772;29;20046;-64
2023/11/16 06:32:35;;;;;;;9.30;5.25;;;;;10.50;98542.00;;;;4938576;29;20043;-65
2023/11/16 06:35:03;;;;;;;11.70;5.07;;;;;10.50;98543.00;;;;4938016;29;20527;-64
2023/11/16 06:37:31;;;;;;;11.85;5.20;;;;;10.50;98537.00;;;;4937196;29;20118;-64
2023/11/16 06:39:58;;;;;;;7.45;4.82;;;;;10.60;98518.00;;;;4938085;29;20090;-64
2023/11/16 06:42:25;;;;;;;8.95;4.45;;;;;10.60;98520.00;;;;4936129;29;20508;-64
2023/11/16 06:44:52;;;;;;;9.43;4.60;;;;;10.60;98521.00;;;;4935922;29;20055;-63
2023/11/16 06:47:19;;;;;;;11.50;4.70;;;;;10.60;98521.00;;;;4936472;29;20083;-64
2023/11/16 06:49:47;;;;;;;15.65;5.85;;;;;10.60;98525.00;;;;4935191;29;20115;-64
2023/11/16 06:52:17;;;;;;;10.40;6.07;;;;;10.60;98525.00;;;;4936664;29;20552;-64
2023/11/16 06:54:44;;;;;;;16.25;5.15;;;;;10.60;98524.00;;;;4918638;29;20044;-64
2023/11/16 06:57:10;;;;;;;9.32;4.88;;;;;10.70;98519.00;;;;4935759;29;20177;-64
2023/11/16 06:59:38;;;;;;;9.85;4.97;;;;;10.70;98518.00;;;;4934115;29;20047;-65
2023/11/16 07:02:07;;;;;;;12.75;5.18;;;;;10.70;98510.00;;;;4935520;29;20580;-64
2023/11/16 07:04:36;;;;;;;13.45;4.82;;;;;10.70;98511.00;;;;4934924;29;20126;-63
2023/11/16 07:07:03;;;;;;;11.18;5.15;;;;;10.80;98512.00;;;;4935305;29;20079;-65
2023/11/16 07:09:31;;;;;;;11.57;5.13;;;;;10.80;98509.00;;;;4934256;29;20075;-65
2023/11/16 07:11:59;;;;;;;10.75;4.50;;;;;10.90;98500.00;;;;4935206;29;20204;-65
2023/11/16 07:14:28;;;;;;;14.90;4.53;;;;;10.90;98484.00;;;;4917529;29;20052;-64
2023/11/16 07:17:11;;;;;;;10.43;4.70;;;;;10.90;98483.00;;;;4935366;29;20126;-64
2023/11/16 07:19:38;;;;;;;10.27;4.50;;;;;10.90;98469.00;;;;4933974;29;20151;-65
2023/11/16 07:22:05;;;;;;;13.73;4.32;;;;;11.00;98462.00;;;;4935235;29;20058;-64
2023/11/16 07:24:32;;;;;;;10.70;4.35;;;;;11.00;98466.00;;;;4917419;29;20050;-65
2023/11/16 07:27:02;;;;;;;12.70;5.05;;;;;11.00;98463.00;;;;4935148;29;20152;-65
2023/11/16 07:29:29;;;;;;;8.55;4.40;;;;;10.90;98467.00;;;;4918050;29;20051;-63
2023/11/16 07:31:56;;;;;;;19.05;4.90;;;;;10.90;98472.00;;;;4935054;29;20139;-64
2023/11/16 07:34:23;;;;;;;12.43;4.55;;;;;11.00;98462.00;;;;4933312;29;20051;-65
2023/11/16 07:36:51;;;;;;;13.38;4.30;;;;;11.00;98468.00;;;;4933904;29;20048;-64
2023/11/16 07:39:18;;;;;;;11.02;4.20;;;;;11.00;98473.00;;;;4935124;29;20047;-64
2023/11/16 07:41:45;;;;;;;12.90;4.45;;;;;10.90;98474.00;;;;4935080;29;20501;-64
2023/11/16 07:44:12;;;;;;;12.50;4.60;;;;;11.00;98463.00;;;;4932907;29;20123;-65
2023/11/16 07:46:38;;;;;;;13.65;5.35;;;;;11.00;98461.00;;;;4934884;29;20043;-65
2023/11/16 07:49:05;;;;;;;11.57;4.40;;;;;11.00;98460.00;;;;4934764;29;20505;-63
2023/11/16 07:51:32;;;;;;;8.43;4.43;;;;;11.10;98459.00;;;;4933419;29;20466;-65
2023/11/16 07:54:03;;;;;;;12.38;4.50;;;;;11.10;98452.00;;;;4934139;29;20405;-65
2023/11/16 07:56:31;;;;;;;13.43;4.43;;;;;11.10;98452.00;;;;4934850;29;20043;-64
2023/11/16 07:58:59;;;;;;;9.73;4.55;;;;;11.20;98443.00;;;;4934955;29;20445;-64
2023/11/16 08:01:39;;;;;;;10.93;4.20;;;;;11.20;98435.00;;;;4934680;29;20107;-64
2023/11/16 08:04:09;;;;;;;10.45;5.28;;;;;11.30;98431.00;;;;4933931;29;20047;-65
2023/11/16 08:06:40;;;;;;;12.35;4.75;;;;;11.30;98423.00;;;;4933142;29;20060;-64
2023/11/16 08:09:09;;;;;;;20.77;5.78;;;;;11.30;98430.00;;;;4933469;29;20057;-65
2023/11/16 08:11:36;;;;;;;30.33;6.93;;;;;11.30;98421.00;;;;4933078;29;20436;-63
2023/11/16 08:14:06;;;;;;;69.65;11.98;;;;;11.30;98428.00;;;;4933806;29;20040;-64
2023/11/16 08:16:34;;;;;;;30.27;5.63;;;;;11.20;98426.00;;;;4933540;29;20134;-65
2023/11/16 08:19:01;;;;;;;17.23;4.57;;;;;11.30;98412.00;;;;4933298;29;20118;-64
2023/11/16 08:21:28;;;;;;;17.08;5.00;;;;;11.30;98402.00;;;;4917493;29;20070;-65
2023/11/16 08:23:56;;;;;;;13.40;4.72;;;;;11.30;98405.00;;;;4932704;29;20489;-64
2023/11/16 08:26:23;;;;;;;11.68;4.18;;;;;11.40;98394.00;;;;4934493;29;20040;-63
2023/11/16 08:28:50;;;;;;;11.50;3.85;;;;;11.40;98392.00;;;;4933066;29;20501;-64
2023/11/16 08:31:17;;;;;;;11.25;4.55;;;;;11.50;98396.00;;;;4933071;29;20051;-64
2023/11/16 08:33:45;;;;;;;15.00;4.30;;;;;11.50;98389.00;;;;4932786;29;20048;-63
2023/11/16 08:36:15;;;;;;;13.73;4.25;;;;;11.50;98378.00;;;;4933331;29;20047;-65
2023/11/16 08:38:44;;;;;;;12.35;4.53;;;;;11.60;98387.00;;;;4934528;29;20055;-65
2023/11/16 08:41:15;;;;;;;9.50;3.97;;;;;11.60;98374.00;;;;4934411;29;20043;-65
2023/11/16 08:43:46;;;;;;;11.93;4.45;;;;;11.60;98366.00;;;;4932389;29;20067;-65
2023/11/16 08:46:25;;;;;;;17.65;4.10;;;;;11.60;98369.00;;;;4933505;29;20090;-64
2023/11/16 08:48:53;;;;;;;11.15;4.35;;;;;11.70;98356.00;;;;4917657;29;20585;-65
2023/11/16 08:51:22;;;;;;;11.63;4.20;;;;;11.80;98360.00;;;;4933297;29;20090;-65
2023/11/16 08:53:54;;;;;;;11.18;4.55;;;;;11.80;98358.00;;;;4933644;29;20485;-65
2023/11/16 08:56:21;;;;;;;10.90;4.18;;;;;11.80;98354.00;;;;4934233;29;20047;-65
2023/11/16 08:59:07;;;;;;;10.88;3.65;;;;;11.80;98348.00;;;;4936751;29;20151;-64
2023/11/16 09:01:37;;;;;;;11.27;3.70;;;;;11.70;98346.00;;;;4937878;29;20572;-63
2023/11/16 09:04:06;;;;;;;15.68;5.50;;;;;11.80;98339.00;;;;4935824;29;20043;-63
2023/11/16 09:06:33;;;;;;;12.30;5.15;;;;;11.80;98338.00;;;;4936322;29;20083;-65
2023/11/16 09:09:09;;;;;;;7.72;2.92;;;;;11.60;98335.00;;;;4920741;29;20091;-62
2023/11/16 09:11:36;;;;;;;9.93;3.47;;;;;11.60;98335.00;;;;4937608;29;20095;-62
2023/11/16 09:14:04;;;;;;;8.50;3.15;;;;;11.70;98329.00;;;;4937054;29;20043;-62
2023/11/16 09:16:31;;;;;;;14.82;3.92;;;;;11.80;98331.00;;;;4936300;29;20044;-62
2023/11/16 09:18:58;;;;;;;6.55;3.60;;;;;11.90;98320.00;;;;4937484;29;20056;-63
2023/11/16 09:21:26;;;;;;;9.38;3.38;;;;;11.90;98311.00;;;;4937416;29;20438;-62
2023/11/16 09:23:54;;;;;;;9.75;2.67;;;;;12.00;98301.00;;;;4936729;29;20497;-62
2023/11/16 09:26:23;;;;;;;7.47;3.13;;;;;11.90;98303.00;;;;4936212;29;20051;-62
2023/11/16 09:28:52;;;;;;;8.85;2.88;;;;;11.80;98289.00;;;;4936282;29;20445;-62
2023/11/16 09:31:33;;;;;;;13.02;3.65;;;;;11.90;98294.00;;;;4937246;29;20078;-63
2023/11/16 09:34:03;;;;;;;10.48;3.20;;;;;11.90;98282.00;;;;4935276;29;20515;-62
2023/11/16 09:36:30;;;;;;;13.98;3.67;;;;;11.90;98271.00;;;;4935931;29;20058;-62
2023/11/16 09:38:57;;;;;;;6.53;3.17;;;;;11.90;98270.00;;;;4935951;29;20197;-63
2023/11/16 09:41:27;;;;;;;7.38;2.30;;;;;11.90;98269.00;;;;4935941;29;20052;-62
2023/11/16 09:43:59;;;;;;;7.15;2.40;;;;;11.80;98258.00;;;;4936327;29;20062;-62
2023/11/16 09:46:30;;;;;;;9.48;3.15;;;;;11.80;98251.00;;;;4935851;29;20193;-62
2023/11/16 09:49:05;;;;;;;8.93;2.50;;;;;11.80;98243.00;;;;4935745;29;20417;-62
2023/11/16 09:51:36;;;;;;;8.57;2.50;;;;;11.80;98225.00;;;;4937062;29;20099;-62
2023/11/16 09:54:08;;;;;;;8.15;2.28;;;;;11.80;98224.00;;;;4936533;29;20043;-60
2023/11/16 09:56:40;;;;;;;5.80;2.08;;;;;11.90;98213.00;;;;4937019;29;20126;-61
2023/11/16 09:59:14;;;;;;;7.50;2.20;;;;;11.80;98197.00;;;;4935847;29;20106;-61
2023/11/16 10:01:52;;;;;;;10.25;2.20;;;;;11.80;98192.00;;;;4936894;29;20110;-62
2023/11/16 10:04:19;;;;;;;8.85;2.20;;;;;11.70;98188.00;;;;4934923;29;20040;-64
2023/11/16 10:06:49;;;;;;;10.18;2.60;;;;;11.50;98183.00;;;;4936439;29;20052;-61
2023/11/16 10:09:17;;;;;;;9.23;2.60;;;;;11.50;98182.00;;;;4918849;29;20070;-65
2023/11/16 10:11:44;;;;;;;6.97;2.20;;;;;11.60;98175.00;;;;4936584;29;20054;-64
2023/11/16 10:14:11;;;;;;;10.10;2.05;;;;;11.70;98159.00;;;;4934533;29;20040;-64
2023/11/16 10:16:39;;;;;;;6.68;2.05;;;;;11.60;98150.00;;;;4936547;29;20051;-63
2023/11/16 10:19:10;;;;;;;5.70;2.28;;;;;11.60;98148.00;;;;4935340;29;20047;-63
2023/11/16 10:21:41;;;;;;;;;;;;;11.60;98141.00;;;;4920210;29;20048;-65
2023/11/16 10:24:09;;;;;;;5.28;1.90;;;;;11.60;98126.00;;;;4935623;29;19929;-62
2023/11/16 10:26:39;;;;;;;5.47;1.65;;;;;11.70;98121.00;;;;4936445;29;20058;-62
2023/11/16 10:29:06;;;;;;;5.03;1.83;;;;;11.70;98119.00;;;;4935220;29;20058;-63
2023/11/16 10:31:34;;;;;;;10.57;2.40;;;;;11.80;98108.00;;;;4936373;29;20043;-64
2023/11/16 10:34:04;;;;;;;8.13;2.28;;;;;11.70;98109.00;;;;4934395;29;20047;-64
2023/11/16 10:36:33;;;;;;;6.60;2.00;;;;;11.60;98102.00;;;;4936679;29;20135;-62
2023/11/16 10:39:01;;;;;;;7.90;2.25;;;;;11.50;98077.00;;;;4934993;29;20051;-64
2023/11/16 10:41:29;;;;;;;9.15;2.25;;;;;11.40;98067.00;;;;4935232;29;20056;-62
2023/11/16 10:43:57;;;;;;;8.30;2.22;;;;;11.40;98050.00;;;;4934061;29;20062;-62
2023/11/16 10:46:27;;;;;;;6.85;2.40;;;;;11.30;98042.00;;;;4935994;29;20480;-62
2023/11/16 10:48:54;;;;;;;4.88;2.08;;;;;11.20;98038.00;;;;4934893;29;20051;-64
2023/11/16 10:51:24;;;;;;;8.48;2.20;;;;;11.20;98027.00;;;;4935853;29;20043;-64
2023/11/16 10:53:52;;;;;;;8.10;2.60;;;;;11.20;98039.00;;;;4935129;29;20040;-63
2023/11/16 10:56:19;;;;;;;10.73;2.75;;;;;11.30;98029.00;;;;4935861;29;20412;-62
2023/11/16 10:58:51;;;;;;;6.03;2.22;;;;;11.30;98031.00;;;;4935779;29;20047;-64
2023/11/16 11:01:19;;;;;;;9.10;1.90;;;;;11.30;98045.00;;;;4934410;29;20055;-64
2023/11/16 11:03:47;;;;;;;4.75;2.03;;;;;11.30;98038.00;;;;4934968;29;20043;-63
2023/11/16 11:06:21;;;;;;;10.63;2.13;;;;;11.20;98034.00;;;;4935520;29;20416;-64
2023/11/16 11:08:52;;;;;;;5.93;2.05;;;;;11.10;98033.00;;;;4934300;29;20556;-64
2023/11/16 11:11:24;;;;;;;9.63;2.50;;;;;11.00;98028.00;;;;4934312;29;20056;-64
2023/11/16 11:13:54;;;;;;;7.70;1.98;;;;;11.00;98029.00;;;;4933694;29;20046;-64
2023/11/16 11:16:25;;;;;;;10.85;3.00;;;;;11.10;98045.00;;;;4935506;29;20079;-62
2023/11/16 11:18:53;;;;;;;5.93;2.00;;;;;11.30;98044.00;;;;4935407;29;20051;-64
2023/11/16 11:21:22;;;;;;;7.65;2.50;;;;;11.40;98043.00;;;;4935224;29;20398;-64
2023/11/16 11:24:08;;;;;;;7.13;2.42;;;;;11.60;98055.00;;;;4933510;29;20130;-64
2023/11/16 11:26:39;;;;;;;6.95;2.00;;;;;11.50;98056.00;;;;4934022;29;20142;-64
2023/11/16 11:29:08;;;;;;;11.13;2.83;;;;;11.50;98061.00;;;;4934134;29;20047;-64
2023/11/16 11:31:43;;;;;;;10.88;3.13;;;;;11.50;98052.00;;;;4934220;29;20416;-65
2023/11/16 11:34:11;;;;;;;;;;;;;11.70;98063.00;;;;4934864;29;20059;-63
2023/11/16 11:36:40;;;;;;;13.48;4.88;;;;;11.70;98063.00;;;;4935042;29;19923;-63
2023/11/16 11:39:14;;;;;;;13.57;5.72;;;;;11.70;98063.00;;;;4935021;29;20098;-62
2023/11/16 11:41:59;;;;;;;13.50;3.47;;;;;11.70;98057.00;;;;4933905;29;20059;-64
2023/11/16 11:44:26;;;;;;;8.45;2.53;;;;;11.60;98063.00;;;;4933009;29;20044;-64
2023/11/16 11:46:57;;;;;;;11.80;3.20;;;;;11.50;98052.00;;;;4934902;29;20044;-64
2023/11/16 11:49:25;;;;;;;4.78;2.10;;;;;11.30;98026.00;;;;4935045;29;20079;-64
2023/11/16 11:51:52;;;;;;;7.97;2.50;;;;;11.10;98030.00;;;;4934780;29;20465;-62
2023/11/16 11:54:19;;;;;;;4.43;2.00;;;;;11.00;98017.00;;;;4932995;29;20505;-61
2023/11/16 11:56:46;;;;;;;4.13;2.00;;;;;11.00;98000.00;;;;4934805;29;20039;-62
2023/11/16 11:59:13;;;;;;;4.88;2.13;;;;;10.90;98004.00;;;;4934787;29;20051;-62
2023/11/16 12:01:40;;;;;;;6.82;2.30;;;;;10.90;97996.00;;;;4933519;29;20051;-64
2023/11/16 12:04:08;;;;;;;7.55;2.42;;;;;11.00;97994.00;;;;4934282;29;20587;-62
2023/11/16 12:06:47;;;;;;;7.97;3.17;;;;;11.20;97988.00;;;;4934665;29;20079;-64
2023/11/16 12:09:13;;;;;;;10.13;3.17;;;;;11.30;97990.00;;;;4934945;29;20492;-64
2023/11/16 12:11:41;;;;;;;7.32;2.42;;;;;11.40;97992.00;;;;4934819;29;20043;-64
2023/11/16 12:14:10;;;;;;;13.25;3.67;;;;;11.50;98005.00;;;;4917067;29;20047;-64
2023/11/16 12:16:37;;;;;;;8.68;4.05;;;;;11.50;97995.00;;;;4934880;29;20043;-63
2023/11/16 12:19:08;;;;;;;6.50;3.80;;;;;11.60;97989.00;;;;4934787;29;20408;-63